sensor_id;sensor_type;location;lat;lon;timestamp;P1;durP1;ratioP1;P2;durP2;ratioP2
7939;SDS011;4015;48.888;9.226;2022-12-18T00:02:03;52.67;;;30.90;;
7939;SDS011;4015;48.888;9.226;2022-12-18T00:04:29;61.60;;;33.13;;
7939;SDS011;4015;48.888;9.226;2022-12-18T00:06:54;54.93;;;30.77;;
7939;SDS011;4015;48.888;9.226;2022-12-18T00:09:20;62.57;;;30.53;;
7939;SDS011;4015;48.888;9.226;2022-12-18T00:11:46;63.77;;;30.77;;
7939;SDS011;4015;48.888;9.226;2022-12-18T00:14:11;54.90;;;30.43;;
7939;SDS011;4015;48.888;9.226;2022-12-18T00:16:37;60.37;;;31.47;;
7939;SDS011;4015;48.888;9.226;2022-12-18T00:19:03;53.57;;;29.50;;
7939;SDS011;4015;48.888;9.226;2022-12-18T00:21:30;52.70;;;29.57;;
7939;SDS011;4015;48.888;9.226;2022-12-18T00:23:57;52.60;;;29.97;;
7939;SDS011;4015;48.888;9.226;2022-12-18T00:26:27;53.57;;;29.37;;
7939;SDS011;4015;48.888;9.226;2022-12-18T00:28:54;52.40;;;28.37;;
7939;SDS011;4015;48.888;9.226;2022-12-18T00:31:23;59.10;;;29.47;;
7939;SDS011;4015;48.888;9.226;2022-12-18T00:33:50;58.10;;;29.87;;
7939;SDS011;4015;48.888;9.226;2022-12-18T00:36:16;57.60;;;30.93;;
7939;SDS011;4015;48.888;9.226;2022-12-18T00:38:45;59.13;;;33.17;;
7939;SDS011;4015;48.888;9.226;2022-12-18T00:41:11;63.03;;;32.10;;
7939;SDS011;4015;48.888;9.226;2022-12-18T00:43:38;58.67;;;32.07;;
7939;SDS011;4015;48.888;9.226;2022-12-18T00:46:04;57.73;;;31.40;;
7939;SDS011;4015;48.888;9.226;2022-12-18T00:48:29;63.50;;;32.63;;
7939;SDS011;4015;48.888;9.226;2022-12-18T00:50:55;62.23;;;30.80;;
7939;SDS011;4015;48.888;9.226;2022-12-18T00:53:21;61.60;;;31.27;;
7939;SDS011;4015;48.888;9.226;2022-12-18T00:55:46;59.57;;;31.97;;
7939;SDS011;4015;48.888;9.226;2022-12-18T00:58:13;62.43;;;30.67;;
7939;SDS011;4015;48.888;9.226;2022-12-18T01:00:39;63.43;;;32.70;;
7939;SDS011;4015;48.888;9.226;2022-12-18T01:03:05;54.97;;;29.60;;
7939;SDS011;4015;48.888;9.226;2022-12-18T01:05:30;52.90;;;29.93;;
7939;SDS011;4015;48.888;9.226;2022-12-18T01:07:56;59.27;;;29.77;;
7939;SDS011;4015;48.888;9.226;2022-12-18T01:10:23;64.17;;;33.40;;
7939;SDS011;4015;48.888;9.226;2022-12-18T01:12:48;67.73;;;33.40;;
7939;SDS011;4015;48.888;9.226;2022-12-18T01:15:14;61.37;;;33.50;;
7939;SDS011;4015;48.888;9.226;2022-12-18T01:17:40;61.83;;;32.97;;
7939;SDS011;4015;48.888;9.226;2022-12-18T01:20:06;65.27;;;31.30;;
7939;SDS011;4015;48.888;9.226;2022-12-18T01:22:33;68.83;;;32.93;;
7939;SDS011;4015;48.888;9.226;2022-12-18T01:24:59;60.83;;;30.50;;
7939;SDS011;4015;48.888;9.226;2022-12-18T01:27:24;56.20;;;31.43;;
7939;SDS011;4015;48.888;9.226;2022-12-18T01:29:50;60.43;;;29.87;;
7939;SDS011;4015;48.888;9.226;2022-12-18T01:32:16;62.97;;;31.80;;
7939;SDS011;4015;48.888;9.226;2022-12-18T01:34:41;70.30;;;34.80;;
7939;SDS011;4015;48.888;9.226;2022-12-18T01:37:06;62.63;;;30.70;;
7939;SDS011;4015;48.888;9.226;2022-12-18T01:39:32;65.10;;;32.70;;
7939;SDS011;4015;48.888;9.226;2022-12-18T01:41:59;65.40;;;32.70;;
7939;SDS011;4015;48.888;9.226;2022-12-18T01:47:25;61.43;;;31.27;;
7939;SDS011;4015;48.888;9.226;2022-12-18T01:50:13;66.30;;;32.67;;
7939;SDS011;4015;48.888;9.226;2022-12-18T01:52:47;67.67;;;33.37;;
7939;SDS011;4015;48.888;9.226;2022-12-18T01:55:16;69.97;;;32.47;;
7939;SDS011;4015;48.888;9.226;2022-12-18T01:57:44;59.00;;;30.37;;
7939;SDS011;4015;48.888;9.226;2022-12-18T02:00:15;58.23;;;32.00;;
7939;SDS011;4015;48.888;9.226;2022-12-18T02:02:43;67.97;;;32.33;;
7939;SDS011;4015;48.888;9.226;2022-12-18T02:05:10;63.87;;;29.33;;
7939;SDS011;4015;48.888;9.226;2022-12-18T02:07:51;54.20;;;28.97;;
7939;SDS011;4015;48.888;9.226;2022-12-18T02:10:31;68.10;;;32.40;;
7939;SDS011;4015;48.888;9.226;2022-12-18T02:13:14;61.13;;;30.40;;
7939;SDS011;4015;48.888;9.226;2022-12-18T02:18:32;54.70;;;29.53;;
7939;SDS011;4015;48.888;9.226;2022-12-18T02:21:05;62.00;;;30.30;;
7939;SDS011;4015;48.888;9.226;2022-12-18T02:26:37;59.90;;;30.63;;
7939;SDS011;4015;48.888;9.226;2022-12-18T02:32:14;61.07;;;29.63;;
7939;SDS011;4015;48.888;9.226;2022-12-18T02:34:42;57.83;;;29.17;;
7939;SDS011;4015;48.888;9.226;2022-12-18T02:37:10;60.73;;;29.93;;
7939;SDS011;4015;48.888;9.226;2022-12-18T02:39:39;61.43;;;29.67;;
7939;SDS011;4015;48.888;9.226;2022-12-18T02:42:06;57.50;;;29.80;;
7939;SDS011;4015;48.888;9.226;2022-12-18T02:44:33;59.60;;;30.43;;
7939;SDS011;4015;48.888;9.226;2022-12-18T02:47:00;64.03;;;30.73;;
7939;SDS011;4015;48.888;9.226;2022-12-18T02:51:53;62.00;;;30.93;;
7939;SDS011;4015;48.888;9.226;2022-12-18T02:57:23;52.23;;;28.30;;
7939;SDS011;4015;48.888;9.226;2022-12-18T03:00:00;63.60;;;31.13;;
7939;SDS011;4015;48.888;9.226;2022-12-18T03:05:19;61.27;;;31.10;;
7939;SDS011;4015;48.888;9.226;2022-12-18T03:07:49;54.33;;;30.00;;
7939;SDS011;4015;48.888;9.226;2022-12-18T03:10:27;57.93;;;28.70;;
7939;SDS011;4015;48.888;9.226;2022-12-18T03:12:58;56.73;;;28.37;;
7939;SDS011;4015;48.888;9.226;2022-12-18T03:15:28;61.57;;;29.40;;
7939;SDS011;4015;48.888;9.226;2022-12-18T03:17:59;57.70;;;27.67;;
7939;SDS011;4015;48.888;9.226;2022-12-18T03:20:29;61.03;;;29.50;;
7939;SDS011;4015;48.888;9.226;2022-12-18T03:22:59;61.43;;;30.37;;
7939;SDS011;4015;48.888;9.226;2022-12-18T03:25:31;60.67;;;30.13;;
7939;SDS011;4015;48.888;9.226;2022-12-18T03:27:59;58.53;;;29.60;;
7939;SDS011;4015;48.888;9.226;2022-12-18T03:30:27;57.67;;;28.07;;
7939;SDS011;4015;48.888;9.226;2022-12-18T03:33:11;55.67;;;31.43;;
7939;SDS011;4015;48.888;9.226;2022-12-18T03:35:44;60.43;;;28.37;;
7939;SDS011;4015;48.888;9.226;2022-12-18T03:38:10;51.67;;;28.10;;
7939;SDS011;4015;48.888;9.226;2022-12-18T03:40:43;57.40;;;30.10;;
7939;SDS011;4015;48.888;9.226;2022-12-18T03:43:45;55.30;;;30.63;;
7939;SDS011;4015;48.888;9.226;2022-12-18T03:46:11;59.10;;;30.37;;
7939;SDS011;4015;48.888;9.226;2022-12-18T03:48:52;51.93;;;27.93;;
7939;SDS011;4015;48.888;9.226;2022-12-18T03:54:22;51.17;;;26.67;;
7939;SDS011;4015;48.888;9.226;2022-12-18T03:56:52;55.00;;;27.17;;
7939;SDS011;4015;48.888;9.226;2022-12-18T03:59:23;49.33;;;27.37;;
7939;SDS011;4015;48.888;9.226;2022-12-18T04:01:51;44.63;;;25.67;;
7939;SDS011;4015;48.888;9.226;2022-12-18T04:04:20;53.93;;;27.87;;
7939;SDS011;4015;48.888;9.226;2022-12-18T04:06:47;51.63;;;26.53;;
7939;SDS011;4015;48.888;9.226;2022-12-18T04:09:14;46.70;;;25.63;;
7939;SDS011;4015;48.888;9.226;2022-12-18T04:11:40;48.07;;;25.90;;
7939;SDS011;4015;48.888;9.226;2022-12-18T04:14:08;44.57;;;24.07;;
7939;SDS011;4015;48.888;9.226;2022-12-18T04:16:34;48.17;;;26.73;;
7939;SDS011;4015;48.888;9.226;2022-12-18T04:19:00;48.63;;;26.33;;
7939;SDS011;4015;48.888;9.226;2022-12-18T04:21:25;56.80;;;26.13;;
7939;SDS011;4015;48.888;9.226;2022-12-18T04:23:50;45.10;;;23.47;;
7939;SDS011;4015;48.888;9.226;2022-12-18T04:26:15;46.67;;;27.50;;
7939;SDS011;4015;48.888;9.226;2022-12-18T04:28:41;49.07;;;24.33;;
7939;SDS011;4015;48.888;9.226;2022-12-18T04:31:06;44.23;;;24.60;;
7939;SDS011;4015;48.888;9.226;2022-12-18T04:33:31;52.47;;;28.53;;
7939;SDS011;4015;48.888;9.226;2022-12-18T04:35:57;40.60;;;23.47;;
7939;SDS011;4015;48.888;9.226;2022-12-18T04:38:23;48.80;;;28.03;;
7939;SDS011;4015;48.888;9.226;2022-12-18T04:40:48;46.77;;;25.07;;
7939;SDS011;4015;48.888;9.226;2022-12-18T04:43:13;45.67;;;24.83;;
7939;SDS011;4015;48.888;9.226;2022-12-18T04:45:39;50.23;;;25.17;;
7939;SDS011;4015;48.888;9.226;2022-12-18T04:48:04;52.53;;;25.53;;
7939;SDS011;4015;48.888;9.226;2022-12-18T04:50:30;48.93;;;25.03;;
7939;SDS011;4015;48.888;9.226;2022-12-18T04:52:55;45.83;;;25.27;;
7939;SDS011;4015;48.888;9.226;2022-12-18T04:55:21;44.43;;;22.93;;
7939;SDS011;4015;48.888;9.226;2022-12-18T04:57:46;45.00;;;23.73;;
7939;SDS011;4015;48.888;9.226;2022-12-18T05:00:12;41.87;;;24.87;;
7939;SDS011;4015;48.888;9.226;2022-12-18T05:02:38;44.93;;;22.90;;
7939;SDS011;4015;48.888;9.226;2022-12-18T05:05:03;41.20;;;21.63;;
7939;SDS011;4015;48.888;9.226;2022-12-18T05:07:29;46.63;;;23.77;;
7939;SDS011;4015;48.888;9.226;2022-12-18T05:09:54;44.00;;;23.40;;
7939;SDS011;4015;48.888;9.226;2022-12-18T05:12:20;43.47;;;23.33;;
7939;SDS011;4015;48.888;9.226;2022-12-18T05:14:48;39.40;;;22.57;;
7939;SDS011;4015;48.888;9.226;2022-12-18T05:17:13;45.37;;;23.20;;
7939;SDS011;4015;48.888;9.226;2022-12-18T05:19:38;41.97;;;20.97;;
7939;SDS011;4015;48.888;9.226;2022-12-18T05:22:06;37.80;;;22.40;;
7939;SDS011;4015;48.888;9.226;2022-12-18T05:24:32;35.57;;;20.50;;
7939;SDS011;4015;48.888;9.226;2022-12-18T05:26:58;40.87;;;21.93;;
7939;SDS011;4015;48.888;9.226;2022-12-18T05:29:23;35.77;;;21.53;;
7939;SDS011;4015;48.888;9.226;2022-12-18T05:31:48;35.63;;;21.73;;
7939;SDS011;4015;48.888;9.226;2022-12-18T05:34:14;39.80;;;21.57;;
7939;SDS011;4015;48.888;9.226;2022-12-18T05:36:40;35.53;;;20.63;;
7939;SDS011;4015;48.888;9.226;2022-12-18T05:39:05;33.10;;;19.27;;
7939;SDS011;4015;48.888;9.226;2022-12-18T05:41:31;34.50;;;19.40;;
7939;SDS011;4015;48.888;9.226;2022-12-18T05:43:56;42.83;;;21.43;;
7939;SDS011;4015;48.888;9.226;2022-12-18T05:46:21;39.07;;;21.80;;
7939;SDS011;4015;48.888;9.226;2022-12-18T05:48:47;30.70;;;19.30;;
7939;SDS011;4015;48.888;9.226;2022-12-18T05:51:14;38.43;;;21.37;;
7939;SDS011;4015;48.888;9.226;2022-12-18T05:53:41;36.53;;;18.73;;
7939;SDS011;4015;48.888;9.226;2022-12-18T05:56:10;34.10;;;17.67;;
7939;SDS011;4015;48.888;9.226;2022-12-18T05:58:37;33.37;;;19.50;;
7939;SDS011;4015;48.888;9.226;2022-12-18T06:01:10;31.83;;;18.47;;
7939;SDS011;4015;48.888;9.226;2022-12-18T06:03:43;33.10;;;20.00;;
7939;SDS011;4015;48.888;9.226;2022-12-18T06:08:48;32.50;;;19.43;;
7939;SDS011;4015;48.888;9.226;2022-12-18T06:11:19;36.53;;;19.10;;
7939;SDS011;4015;48.888;9.226;2022-12-18T06:13:49;35.57;;;18.67;;
7939;SDS011;4015;48.888;9.226;2022-12-18T06:16:15;36.47;;;20.20;;
7939;SDS011;4015;48.888;9.226;2022-12-18T06:18:41;36.83;;;18.57;;
7939;SDS011;4015;48.888;9.226;2022-12-18T06:21:06;37.20;;;19.13;;
7939;SDS011;4015;48.888;9.226;2022-12-18T06:23:31;38.97;;;19.23;;
7939;SDS011;4015;48.888;9.226;2022-12-18T06:25:57;40.37;;;20.40;;
7939;SDS011;4015;48.888;9.226;2022-12-18T06:28:22;43.73;;;22.63;;
7939;SDS011;4015;48.888;9.226;2022-12-18T06:30:48;35.70;;;19.57;;
7939;SDS011;4015;48.888;9.226;2022-12-18T06:33:14;38.97;;;22.00;;
7939;SDS011;4015;48.888;9.226;2022-12-18T06:35:40;37.80;;;21.00;;
7939;SDS011;4015;48.888;9.226;2022-12-18T06:38:06;56.23;;;21.27;;
7939;SDS011;4015;48.888;9.226;2022-12-18T06:40:32;42.70;;;22.23;;
7939;SDS011;4015;48.888;9.226;2022-12-18T06:42:57;44.07;;;21.73;;
7939;SDS011;4015;48.888;9.226;2022-12-18T06:45:23;40.10;;;19.33;;
7939;SDS011;4015;48.888;9.226;2022-12-18T06:47:49;46.07;;;21.43;;
7939;SDS011;4015;48.888;9.226;2022-12-18T06:50:14;38.57;;;20.60;;
7939;SDS011;4015;48.888;9.226;2022-12-18T06:52:40;39.83;;;20.50;;
7939;SDS011;4015;48.888;9.226;2022-12-18T06:55:06;37.33;;;20.27;;
7939;SDS011;4015;48.888;9.226;2022-12-18T06:57:33;43.87;;;24.03;;
7939;SDS011;4015;48.888;9.226;2022-12-18T07:00:01;39.07;;;19.80;;
7939;SDS011;4015;48.888;9.226;2022-12-18T07:02:27;41.03;;;20.87;;
7939;SDS011;4015;48.888;9.226;2022-12-18T07:04:53;40.33;;;21.53;;
7939;SDS011;4015;48.888;9.226;2022-12-18T07:07:18;41.03;;;20.67;;
7939;SDS011;4015;48.888;9.226;2022-12-18T07:09:43;42.20;;;21.10;;
7939;SDS011;4015;48.888;9.226;2022-12-18T07:12:09;37.50;;;21.07;;
7939;SDS011;4015;48.888;9.226;2022-12-18T07:14:34;43.97;;;20.37;;
7939;SDS011;4015;48.888;9.226;2022-12-18T07:17:00;42.50;;;23.00;;
7939;SDS011;4015;48.888;9.226;2022-12-18T07:19:25;36.00;;;20.70;;
7939;SDS011;4015;48.888;9.226;2022-12-18T07:21:51;40.23;;;21.07;;
7939;SDS011;4015;48.888;9.226;2022-12-18T07:24:16;40.10;;;21.97;;
7939;SDS011;4015;48.888;9.226;2022-12-18T07:26:42;41.67;;;21.50;;
7939;SDS011;4015;48.888;9.226;2022-12-18T07:29:10;33.00;;;19.57;;
7939;SDS011;4015;48.888;9.226;2022-12-18T07:31:35;35.87;;;20.33;;
7939;SDS011;4015;48.888;9.226;2022-12-18T07:34:00;41.27;;;21.87;;
7939;SDS011;4015;48.888;9.226;2022-12-18T07:36:26;43.23;;;20.93;;
7939;SDS011;4015;48.888;9.226;2022-12-18T07:38:51;35.90;;;19.53;;
7939;SDS011;4015;48.888;9.226;2022-12-18T07:41:17;32.73;;;20.33;;
7939;SDS011;4015;48.888;9.226;2022-12-18T07:43:44;37.93;;;20.53;;
7939;SDS011;4015;48.888;9.226;2022-12-18T07:46:09;34.93;;;20.83;;
7939;SDS011;4015;48.888;9.226;2022-12-18T07:48:36;40.53;;;20.37;;
7939;SDS011;4015;48.888;9.226;2022-12-18T07:51:02;39.07;;;19.23;;
7939;SDS011;4015;48.888;9.226;2022-12-18T07:53:29;42.27;;;20.73;;
7939;SDS011;4015;48.888;9.226;2022-12-18T07:55:58;36.43;;;20.17;;
7939;SDS011;4015;48.888;9.226;2022-12-18T07:58:25;39.47;;;21.47;;
7939;SDS011;4015;48.888;9.226;2022-12-18T08:00:50;36.70;;;20.77;;
7939;SDS011;4015;48.888;9.226;2022-12-18T08:03:17;40.57;;;21.07;;
7939;SDS011;4015;48.888;9.226;2022-12-18T08:05:42;39.77;;;20.57;;
7939;SDS011;4015;48.888;9.226;2022-12-18T08:08:08;39.53;;;20.67;;
7939;SDS011;4015;48.888;9.226;2022-12-18T08:10:33;36.87;;;20.50;;
7939;SDS011;4015;48.888;9.226;2022-12-18T08:12:58;34.27;;;20.97;;
7939;SDS011;4015;48.888;9.226;2022-12-18T08:15:23;36.47;;;20.07;;
7939;SDS011;4015;48.888;9.226;2022-12-18T08:17:49;37.93;;;20.90;;
7939;SDS011;4015;48.888;9.226;2022-12-18T08:20:14;37.90;;;20.97;;
7939;SDS011;4015;48.888;9.226;2022-12-18T08:22:40;37.13;;;20.70;;
7939;SDS011;4015;48.888;9.226;2022-12-18T08:25:08;39.07;;;21.20;;
7939;SDS011;4015;48.888;9.226;2022-12-18T08:27:34;38.60;;;22.17;;
7939;SDS011;4015;48.888;9.226;2022-12-18T08:30:00;37.97;;;22.37;;
7939;SDS011;4015;48.888;9.226;2022-12-18T08:32:26;35.17;;;20.40;;
7939;SDS011;4015;48.888;9.226;2022-12-18T08:34:52;39.17;;;22.80;;
7939;SDS011;4015;48.888;9.226;2022-12-18T08:37:17;40.13;;;22.80;;
7939;SDS011;4015;48.888;9.226;2022-12-18T08:39:43;37.63;;;21.83;;
7939;SDS011;4015;48.888;9.226;2022-12-18T08:42:09;51.50;;;26.20;;
7939;SDS011;4015;48.888;9.226;2022-12-18T08:44:53;42.97;;;24.07;;
7939;SDS011;4015;48.888;9.226;2022-12-18T08:47:18;38.67;;;22.40;;
7939;SDS011;4015;48.888;9.226;2022-12-18T08:49:43;35.77;;;20.63;;
7939;SDS011;4015;48.888;9.226;2022-12-18T08:52:09;37.33;;;21.77;;
7939;SDS011;4015;48.888;9.226;2022-12-18T08:54:34;39.10;;;23.00;;
7939;SDS011;4015;48.888;9.226;2022-12-18T08:56:59;38.90;;;22.53;;
7939;SDS011;4015;48.888;9.226;2022-12-18T08:59:25;41.33;;;23.73;;
7939;SDS011;4015;48.888;9.226;2022-12-18T09:01:53;35.63;;;22.67;;
7939;SDS011;4015;48.888;9.226;2022-12-18T09:04:20;42.60;;;22.57;;
7939;SDS011;4015;48.888;9.226;2022-12-18T09:06:45;43.60;;;24.17;;
7939;SDS011;4015;48.888;9.226;2022-12-18T09:09:10;37.90;;;23.03;;
7939;SDS011;4015;48.888;9.226;2022-12-18T09:11:36;38.97;;;24.00;;
7939;SDS011;4015;48.888;9.226;2022-12-18T09:14:01;37.50;;;22.57;;
7939;SDS011;4015;48.888;9.226;2022-12-18T09:16:27;44.80;;;24.40;;
7939;SDS011;4015;48.888;9.226;2022-12-18T09:18:54;39.73;;;23.87;;
7939;SDS011;4015;48.888;9.226;2022-12-18T09:21:24;46.40;;;25.77;;
7939;SDS011;4015;48.888;9.226;2022-12-18T09:23:51;43.40;;;24.03;;
7939;SDS011;4015;48.888;9.226;2022-12-18T09:26:18;39.60;;;24.00;;
7939;SDS011;4015;48.888;9.226;2022-12-18T09:28:44;42.77;;;25.17;;
7939;SDS011;4015;48.888;9.226;2022-12-18T09:31:10;38.57;;;24.00;;
7939;SDS011;4015;48.888;9.226;2022-12-18T09:33:37;37.87;;;21.73;;
7939;SDS011;4015;48.888;9.226;2022-12-18T09:36:03;44.23;;;26.33;;
7939;SDS011;4015;48.888;9.226;2022-12-18T09:38:29;59.87;;;36.77;;
7939;SDS011;4015;48.888;9.226;2022-12-18T09:44:11;39.10;;;24.07;;
7939;SDS011;4015;48.888;9.226;2022-12-18T09:47:04;40.07;;;23.20;;
7939;SDS011;4015;48.888;9.226;2022-12-18T09:49:28;40.80;;;23.80;;
7939;SDS011;4015;48.888;9.226;2022-12-18T09:51:57;40.10;;;23.80;;
7939;SDS011;4015;48.888;9.226;2022-12-18T09:54:36;40.20;;;26.43;;
7939;SDS011;4015;48.888;9.226;2022-12-18T09:57:22;36.90;;;24.20;;
7939;SDS011;4015;48.888;9.226;2022-12-18T09:59:54;36.73;;;24.03;;
7939;SDS011;4015;48.888;9.226;2022-12-18T10:02:24;39.47;;;26.23;;
7939;SDS011;4015;48.888;9.226;2022-12-18T10:04:55;42.33;;;26.37;;
7939;SDS011;4015;48.888;9.226;2022-12-18T10:07:42;38.30;;;24.77;;
7939;SDS011;4015;48.888;9.226;2022-12-18T10:12:59;36.33;;;26.17;;
7939;SDS011;4015;48.888;9.226;2022-12-18T10:15:36;38.63;;;27.07;;
7939;SDS011;4015;48.888;9.226;2022-12-18T10:20:46;39.23;;;27.00;;
7939;SDS011;4015;48.888;9.226;2022-12-18T10:28:23;41.80;;;26.77;;
7939;SDS011;4015;48.888;9.226;2022-12-18T10:30:50;45.00;;;28.00;;
7939;SDS011;4015;48.888;9.226;2022-12-18T10:33:19;47.13;;;28.93;;
7939;SDS011;4015;48.888;9.226;2022-12-18T10:35:47;42.73;;;27.57;;
7939;SDS011;4015;48.888;9.226;2022-12-18T10:44:10;41.77;;;26.37;;
7939;SDS011;4015;48.888;9.226;2022-12-18T10:46:46;41.37;;;27.13;;
7939;SDS011;4015;48.888;9.226;2022-12-18T10:49:24;42.07;;;27.07;;
7939;SDS011;4015;48.888;9.226;2022-12-18T10:52:04;41.83;;;26.23;;
7939;SDS011;4015;48.888;9.226;2022-12-18T10:54:30;42.07;;;27.50;;
7939;SDS011;4015;48.888;9.226;2022-12-18T11:00:48;38.17;;;26.23;;
7939;SDS011;4015;48.888;9.226;2022-12-18T11:02:53;41.90;;;26.40;;
7939;SDS011;4015;48.888;9.226;2022-12-18T11:05:27;35.47;;;26.13;;
7939;SDS011;4015;48.888;9.226;2022-12-18T11:07:53;36.33;;;25.60;;
7939;SDS011;4015;48.888;9.226;2022-12-18T11:10:20;37.93;;;25.90;;
7939;SDS011;4015;48.888;9.226;2022-12-18T11:12:47;38.83;;;27.73;;
7939;SDS011;4015;48.888;9.226;2022-12-18T11:15:18;35.13;;;26.53;;
7939;SDS011;4015;48.888;9.226;2022-12-18T11:18:05;37.17;;;26.67;;
7939;SDS011;4015;48.888;9.226;2022-12-18T11:20:49;36.30;;;26.23;;
7939;SDS011;4015;48.888;9.226;2022-12-18T11:23:16;40.57;;;27.07;;
7939;SDS011;4015;48.888;9.226;2022-12-18T11:25:57;36.90;;;25.37;;
7939;SDS011;4015;48.888;9.226;2022-12-18T11:31:20;39.83;;;26.50;;
7939;SDS011;4015;48.888;9.226;2022-12-18T11:36:19;40.50;;;26.03;;
7939;SDS011;4015;48.888;9.226;2022-12-18T11:38:46;38.07;;;25.63;;
7939;SDS011;4015;48.888;9.226;2022-12-18T11:44:29;39.17;;;25.80;;
7939;SDS011;4015;48.888;9.226;2022-12-18T11:47:09;39.80;;;25.87;;
7939;SDS011;4015;48.888;9.226;2022-12-18T11:49:47;39.57;;;25.37;;
7939;SDS011;4015;48.888;9.226;2022-12-18T11:55:04;38.83;;;25.30;;
7939;SDS011;4015;48.888;9.226;2022-12-18T11:57:51;38.53;;;26.23;;
7939;SDS011;4015;48.888;9.226;2022-12-18T12:00:24;42.43;;;26.90;;
7939;SDS011;4015;48.888;9.226;2022-12-18T12:05:20;39.43;;;26.57;;
7939;SDS011;4015;48.888;9.226;2022-12-18T12:18:20;43.30;;;26.60;;
7939;SDS011;4015;48.888;9.226;2022-12-18T12:26:18;41.70;;;25.93;;
7939;SDS011;4015;48.888;9.226;2022-12-18T12:29:38;40.63;;;26.40;;
7939;SDS011;4015;48.888;9.226;2022-12-18T12:40:18;39.43;;;25.07;;
7939;SDS011;4015;48.888;9.226;2022-12-18T12:42:55;42.20;;;25.83;;
7939;SDS011;4015;48.888;9.226;2022-12-18T12:45:47;37.87;;;25.40;;
7939;SDS011;4015;48.888;9.226;2022-12-18T12:48:19;37.90;;;24.40;;
7939;SDS011;4015;48.888;9.226;2022-12-18T12:50:53;36.27;;;24.57;;
7939;SDS011;4015;48.888;9.226;2022-12-18T12:53:22;37.97;;;23.70;;
7939;SDS011;4015;48.888;9.226;2022-12-18T12:55:52;37.90;;;25.23;;
7939;SDS011;4015;48.888;9.226;2022-12-18T13:01:07;39.93;;;25.03;;
7939;SDS011;4015;48.888;9.226;2022-12-18T13:09:09;34.43;;;24.67;;
7939;SDS011;4015;48.888;9.226;2022-12-18T13:11:39;42.83;;;24.73;;
7939;SDS011;4015;48.888;9.226;2022-12-18T13:14:27;37.00;;;24.50;;
7939;SDS011;4015;48.888;9.226;2022-12-18T13:17:13;34.33;;;23.73;;
7939;SDS011;4015;48.888;9.226;2022-12-18T13:19:44;39.87;;;25.70;;
7939;SDS011;4015;48.888;9.226;2022-12-18T13:22:22;37.27;;;23.53;;
7939;SDS011;4015;48.888;9.226;2022-12-18T13:24:50;37.63;;;24.43;;
7939;SDS011;4015;48.888;9.226;2022-12-18T13:38:21;38.13;;;23.13;;
7939;SDS011;4015;48.888;9.226;2022-12-18T13:43:43;39.53;;;24.17;;
7939;SDS011;4015;48.888;9.226;2022-12-18T13:46:21;40.90;;;23.97;;
7939;SDS011;4015;48.888;9.226;2022-12-18T13:49:01;33.37;;;22.70;;
7939;SDS011;4015;48.888;9.226;2022-12-18T13:51:43;36.93;;;24.00;;
7939;SDS011;4015;48.888;9.226;2022-12-18T13:56:46;37.27;;;23.67;;
7939;SDS011;4015;48.888;9.226;2022-12-18T13:59:17;39.97;;;25.57;;
7939;SDS011;4015;48.888;9.226;2022-12-18T14:01:46;40.43;;;24.43;;
7939;SDS011;4015;48.888;9.226;2022-12-18T14:04:23;59.67;;;40.07;;
7939;SDS011;4015;48.888;9.226;2022-12-18T14:06:57;38.77;;;24.10;;
7939;SDS011;4015;48.888;9.226;2022-12-18T14:09:29;33.43;;;21.53;;
7939;SDS011;4015;48.888;9.226;2022-12-18T14:11:59;36.03;;;23.57;;
7939;SDS011;4015;48.888;9.226;2022-12-18T14:14:45;38.20;;;25.23;;
7939;SDS011;4015;48.888;9.226;2022-12-18T14:17:12;39.90;;;23.60;;
7939;SDS011;4015;48.888;9.226;2022-12-18T14:19:43;37.17;;;22.47;;
7939;SDS011;4015;48.888;9.226;2022-12-18T14:22:20;36.43;;;22.90;;
7939;SDS011;4015;48.888;9.226;2022-12-18T14:25:10;41.63;;;24.20;;
7939;SDS011;4015;48.888;9.226;2022-12-18T14:27:42;36.00;;;23.20;;
7939;SDS011;4015;48.888;9.226;2022-12-18T14:30:23;35.97;;;23.53;;
7939;SDS011;4015;48.888;9.226;2022-12-18T14:33:11;37.60;;;23.70;;
7939;SDS011;4015;48.888;9.226;2022-12-18T14:36:03;39.30;;;23.77;;
7939;SDS011;4015;48.888;9.226;2022-12-18T14:38:31;36.40;;;22.20;;
7939;SDS011;4015;48.888;9.226;2022-12-18T14:41:12;43.37;;;24.73;;
7939;SDS011;4015;48.888;9.226;2022-12-18T14:43:40;38.47;;;23.93;;
7939;SDS011;4015;48.888;9.226;2022-12-18T14:49:03;38.87;;;22.73;;
7939;SDS011;4015;48.888;9.226;2022-12-18T14:51:31;44.67;;;25.10;;
7939;SDS011;4015;48.888;9.226;2022-12-18T14:54:03;46.53;;;25.13;;
7939;SDS011;4015;48.888;9.226;2022-12-18T14:56:34;41.67;;;24.13;;
7939;SDS011;4015;48.888;9.226;2022-12-18T15:01:38;41.03;;;25.80;;
7939;SDS011;4015;48.888;9.226;2022-12-18T15:04:23;44.93;;;26.60;;
7939;SDS011;4015;48.888;9.226;2022-12-18T15:07:02;42.80;;;24.20;;
7939;SDS011;4015;48.888;9.226;2022-12-18T15:09:29;36.40;;;23.30;;
7939;SDS011;4015;48.888;9.226;2022-12-18T15:11:58;44.10;;;24.50;;
7939;SDS011;4015;48.888;9.226;2022-12-18T15:14:37;36.43;;;22.47;;
7939;SDS011;4015;48.888;9.226;2022-12-18T15:17:06;41.73;;;23.43;;
7939;SDS011;4015;48.888;9.226;2022-12-18T15:19:42;39.07;;;24.07;;
7939;SDS011;4015;48.888;9.226;2022-12-18T15:22:24;43.47;;;25.73;;
7939;SDS011;4015;48.888;9.226;2022-12-18T15:24:51;41.20;;;24.47;;
7939;SDS011;4015;48.888;9.226;2022-12-18T15:27:25;42.67;;;23.53;;
7939;SDS011;4015;48.888;9.226;2022-12-18T15:32:34;41.10;;;24.07;;
7939;SDS011;4015;48.888;9.226;2022-12-18T15:35:02;44.53;;;26.00;;
7939;SDS011;4015;48.888;9.226;2022-12-18T15:37:28;43.23;;;25.43;;
7939;SDS011;4015;48.888;9.226;2022-12-18T15:39:54;61.77;;;35.90;;
7939;SDS011;4015;48.888;9.226;2022-12-18T15:42:19;42.03;;;25.50;;
7939;SDS011;4015;48.888;9.226;2022-12-18T15:45:03;44.73;;;24.93;;
7939;SDS011;4015;48.888;9.226;2022-12-18T15:47:29;40.10;;;23.07;;
7939;SDS011;4015;48.888;9.226;2022-12-18T15:49:54;41.60;;;21.67;;
7939;SDS011;4015;48.888;9.226;2022-12-18T15:52:19;43.63;;;24.77;;
7939;SDS011;4015;48.888;9.226;2022-12-18T15:54:50;37.87;;;21.20;;
7939;SDS011;4015;48.888;9.226;2022-12-18T15:57:35;39.13;;;22.33;;
7939;SDS011;4015;48.888;9.226;2022-12-18T16:00:01;33.37;;;21.30;;
7939;SDS011;4015;48.888;9.226;2022-12-18T16:02:26;38.33;;;22.03;;
7939;SDS011;4015;48.888;9.226;2022-12-18T16:04:53;39.07;;;21.40;;
7939;SDS011;4015;48.888;9.226;2022-12-18T16:07:19;45.60;;;21.70;;
7939;SDS011;4015;48.888;9.226;2022-12-18T16:09:44;43.30;;;23.67;;
7939;SDS011;4015;48.888;9.226;2022-12-18T16:12:14;41.40;;;22.67;;
7939;SDS011;4015;48.888;9.226;2022-12-18T16:14:41;38.47;;;21.93;;
7939;SDS011;4015;48.888;9.226;2022-12-18T16:17:09;35.57;;;21.13;;
7939;SDS011;4015;48.888;9.226;2022-12-18T16:19:35;35.13;;;20.27;;
7939;SDS011;4015;48.888;9.226;2022-12-18T16:22:01;40.43;;;22.10;;
7939;SDS011;4015;48.888;9.226;2022-12-18T16:24:30;34.60;;;20.47;;
7939;SDS011;4015;48.888;9.226;2022-12-18T16:26:57;33.73;;;19.33;;
7939;SDS011;4015;48.888;9.226;2022-12-18T16:29:24;37.83;;;21.50;;
7939;SDS011;4015;48.888;9.226;2022-12-18T16:32:01;38.80;;;21.73;;
7939;SDS011;4015;48.888;9.226;2022-12-18T16:34:27;37.57;;;21.07;;
7939;SDS011;4015;48.888;9.226;2022-12-18T16:37:01;37.67;;;21.97;;
7939;SDS011;4015;48.888;9.226;2022-12-18T16:39:29;37.00;;;20.43;;
7939;SDS011;4015;48.888;9.226;2022-12-18T16:41:55;37.63;;;20.40;;
7939;SDS011;4015;48.888;9.226;2022-12-18T16:44:21;37.00;;;20.93;;
7939;SDS011;4015;48.888;9.226;2022-12-18T16:46:47;36.43;;;20.67;;
7939;SDS011;4015;48.888;9.226;2022-12-18T16:49:16;34.30;;;20.70;;
7939;SDS011;4015;48.888;9.226;2022-12-18T16:51:42;35.47;;;21.23;;
7939;SDS011;4015;48.888;9.226;2022-12-18T16:54:08;35.97;;;22.33;;
7939;SDS011;4015;48.888;9.226;2022-12-18T16:56:34;35.97;;;20.27;;
7939;SDS011;4015;48.888;9.226;2022-12-18T16:59:00;36.23;;;22.97;;
7939;SDS011;4015;48.888;9.226;2022-12-18T17:01:28;33.00;;;19.73;;